Podunk, Michigan
Current Conditions -  °F | °C
As of 6:53 AM on Monday 24 Nov 2014 (Local Time) from KARB Reporting Station
Overcast Overcast  
Wind Chill: 54°   Ceiling: 1200
Heat Index: 54°   Visibility: 10mi
Dew Point: 51°   Wind: 14mph
Humidity: 90%   Direction: 230°SW
Pressure: 29.14"   Gusts: NA
Location:  42.1633°N, 84.0265°W
Report Text: KARB 241153Z AUTO 23012KT 10SM OVC012 12/11 A2914 RMK AO2 RAE1054B30E42 SLP866 P0000 60023 70113 T01220106 10133 20111 51023
Loading
Personal Weather Stations






























Interactive Weather Map New forecast layout! Learn more

10-Day Weather Forecast

Advertisements
Track Severe Weather on mobile